createdAt,value
2022-09-10T00:00:33.249Z,976.80
2022-09-10T00:12:33.709Z,976.75
2022-09-10T00:24:34.189Z,976.57
2022-09-10T00:36:34.626Z,976.67
2022-09-10T00:48:35.136Z,976.62
2022-09-10T01:00:35.546Z,976.57
2022-09-10T01:12:36.183Z,976.44
2022-09-10T01:24:36.415Z,976.34
2022-09-10T01:36:36.891Z,976.25
2022-09-10T01:48:37.346Z,976.17
2022-09-10T02:00:37.870Z,976.24
2022-09-10T02:12:38.233Z,976.18
2022-09-10T02:24:38.715Z,976.17
2022-09-10T02:36:39.133Z,976.11
2022-09-10T02:48:39.735Z,976.23
2022-09-10T03:00:40.081Z,976.50
2022-09-10T03:12:40.519Z,976.14
2022-09-10T03:24:40.965Z,976.08
2022-09-10T03:36:41.436Z,976.10
2022-09-10T03:48:41.844Z,976.03
2022-09-10T04:00:42.371Z,976.09
2022-09-10T04:12:42.823Z,976.11
2022-09-10T04:24:43.248Z,976.07
2022-09-10T04:36:43.690Z,976.08
2022-09-10T04:48:44.142Z,976.09
2022-09-10T05:00:44.643Z,976.03
2022-09-10T05:12:45.087Z,976.30
2022-09-10T05:24:45.462Z,976.27
2022-09-10T05:36:45.975Z,976.50
2022-09-10T05:48:46.629Z,976.54
2022-09-10T06:00:46.879Z,976.49
2022-09-10T06:12:47.319Z,976.50
2022-09-10T06:24:47.774Z,976.65
2022-09-10T06:36:48.244Z,976.62
2022-09-10T06:48:48.773Z,976.71
2022-09-10T07:00:49.180Z,976.80
2022-09-10T07:12:49.582Z,976.78
2022-09-10T07:24:50.053Z,976.72
2022-09-10T07:36:50.535Z,976.78
2022-09-10T07:48:50.966Z,976.83
2022-09-10T08:00:51.442Z,976.87
2022-09-10T08:12:51.862Z,976.83
2022-09-10T08:24:52.348Z,976.83
2022-09-10T08:36:52.784Z,976.82
2022-09-10T08:48:53.239Z,976.80
2022-09-10T09:00:53.668Z,976.77
2022-09-10T09:12:54.130Z,976.84
2022-09-10T09:24:54.592Z,976.76
2022-09-10T09:36:55.069Z,976.81
2022-09-10T09:48:55.488Z,976.73
2022-09-10T10:00:55.995Z,976.64
2022-09-10T10:12:56.421Z,976.48
2022-09-10T10:24:56.852Z,976.60
2022-09-10T10:36:57.314Z,976.42
2022-09-10T10:48:58.107Z,976.35
2022-09-10T11:00:58.260Z,976.35
2022-09-10T11:12:58.709Z,976.40
2022-09-10T11:24:59.168Z,976.55
2022-09-10T11:36:59.633Z,976.48
2022-09-10T11:49:00.052Z,976.30
2022-09-10T12:01:00.500Z,976.08
2022-09-10T12:13:01.004Z,976.09
2022-09-10T12:25:01.466Z,976.01
2022-09-10T12:37:01.902Z,975.87
2022-09-10T12:49:02.342Z,975.68
2022-09-10T13:01:02.775Z,975.71
2022-09-10T13:13:03.288Z,975.83
2022-09-10T13:25:03.702Z,976.00
2022-09-10T13:37:04.165Z,975.93
2022-09-10T13:49:04.616Z,975.80
2022-09-10T14:01:05.112Z,975.86
2022-09-10T14:13:05.563Z,975.67
2022-09-10T14:25:06.104Z,975.77
2022-09-10T14:37:06.440Z,975.70
2022-09-10T14:49:06.911Z,975.81
2022-09-10T15:01:07.407Z,975.86
2022-09-10T15:13:07.837Z,976.09
2022-09-10T15:25:10.859Z,976.14
2022-09-10T15:37:08.770Z,976.12
2022-09-10T15:49:09.238Z,976.13
2022-09-10T16:01:09.647Z,976.23
2022-09-10T16:13:10.108Z,976.39
2022-09-10T16:25:10.548Z,976.51
2022-09-10T16:37:11.007Z,976.48
2022-09-10T16:49:11.481Z,976.53
2022-09-10T17:01:11.927Z,976.54
2022-09-10T17:13:12.403Z,976.64
2022-09-10T17:25:12.811Z,976.51
2022-09-10T17:37:13.277Z,976.58
2022-09-10T17:49:13.727Z,976.77
2022-09-10T18:01:14.222Z,976.77
2022-09-10T18:13:14.696Z,976.71
2022-09-10T18:25:15.131Z,976.94
2022-09-10T18:37:15.575Z,977.19
2022-09-10T18:49:20.454Z,977.35
2022-09-10T19:01:16.574Z,977.38
2022-09-10T19:13:16.932Z,977.31
2022-09-10T19:25:17.378Z,977.40
2022-09-10T19:37:17.857Z,977.45
2022-09-10T19:49:18.328Z,977.50
2022-09-10T20:01:18.792Z,977.50
2022-09-10T20:13:19.189Z,977.45
2022-09-10T20:25:19.827Z,977.45
2022-09-10T20:37:20.093Z,977.44
2022-09-10T20:49:20.569Z,977.36
2022-09-10T21:01:21.069Z,977.44
2022-09-10T21:13:24.948Z,977.36
2022-09-10T21:25:21.898Z,977.41
2022-09-10T21:37:22.391Z,977.39
2022-09-10T21:49:22.835Z,977.25
2022-09-10T22:01:23.333Z,977.26
2022-09-10T22:13:23.711Z,977.35
2022-09-10T22:25:24.163Z,977.33
2022-09-10T22:37:24.629Z,977.35
2022-09-10T22:49:25.126Z,977.39
2022-09-10T23:01:25.590Z,977.34
2022-09-10T23:13:26.007Z,977.30
2022-09-10T23:25:26.451Z,977.25
2022-09-10T23:37:26.928Z,977.21
2022-09-10T23:49:27.386Z,977.30
